Un Karadeniz — TCTD3 — position and weather

sailwx.info

Track history (hours):
 
Tides and Currents Weather Stations Pressure Air Temp Water Temp Dewpoint Dewpoint Depression Visibility Wind Speed Wind Dir Waves Ship Positions

Un Karadeniz

Last reported at 2018-Apr-20 11:50 UTC. Time now 2018-Apr-20 12:46 UTC.
Position N 40°51' E 029°16'.

Length 193 m; draft 6.3 m.

Type: Ship (hazmat cat A). MMSI: 271002571.

Date/timePositionNaut miles runAvg speedWind from/ knotsBaromVisibWave heightAir tempDewpointWater temp
2018-Apr-20 11:50N 40°51' E 029°16'0 0.0
2018-Apr-20 11:26N 40°51' E 029°16'  
2018-Apr-17 19:16N 37°14' E 024°05'3219.8
2018-Apr-17 17:39N 36°48' E 023°40'420.2
2018-Apr-17 17:29N 36°46' E 023°38'61918.1
2018-Apr-16 07:17N 44°05' E 014°05'620.0
2018-Apr-16 07:00N 44°10' E 014°00'1019.9
2018-Apr-16 06:30N 44°18' E 013°52'1019.7
2018-Apr-16 06:00N 44°26' E 013°45'1019.6
2018-Apr-16 05:30N 44°35' E 013°38'1019.5
2018-Apr-16 05:00N 44°43' E 013°30'1019.7
2018-Apr-16 04:30N 44°51' E 013°23'1019.6
2018-Apr-16 04:00N 44°59' E 013°15'1019.7
2018-Apr-16 03:30N 45°08' E 013°08'1019.5
2018-Apr-16 03:00N 45°17' E 013°04'917.6
2018-Apr-16 02:30N 45°25' E 013°07'1019.3
2018-Apr-16 02:00N 45°32' E 013°18'1019.1
2018-Apr-16 01:30N 45°36' E 013°30'918.6
2018-Apr-16 01:00N 45°39' E 013°42'2 2.8
2018-Apr-16 00:22N 45°39' E 013°45'0 0.0
2018-Apr-15 23:55N 45°39' E 013°45'0 0.0
2018-Apr-15 23:30N 45°39' E 013°45'0 0.0
2018-Apr-15 22:54N 45°39' E 013°45'0 0.0
2018-Apr-15 22:27N 45°39' E 013°45'0 0.0
2018-Apr-15 22:00N 45°39' E 013°45'0 0.0
2018-Apr-15 21:27N 45°39' E 013°45'0 0.0
2018-Apr-15 20:56N 45°39' E 013°45'0 0.0
2018-Apr-15 20:29N 45°39' E 013°45'0 0.0
2018-Apr-15 19:59N 45°39' E 013°45'0 0.0
2018-Apr-15 19:26N 45°39' E 013°45'0 0.0
2018-Apr-15 18:58N 45°39' E 013°45'0 0.0
2018-Apr-15 18:30N 45°39' E 013°45'0 0.0
2018-Apr-15 17:55N 45°39' E 013°45'0 0.0
2018-Apr-15 17:28N 45°39' E 013°45'0 0.0
2018-Apr-15 16:58N 45°39' E 013°45'0 0.0
2018-Apr-15 16:30N 45°39' E 013°45'0 0.0
2018-Apr-15 15:54N 45°39' E 013°45'0 0.0
2018-Apr-15 15:27N 45°39' E 013°45'0 0.0
2018-Apr-15 15:01N 45°39' E 013°45'3 6.8
2018-Apr-15 14:31N 45°39' E 013°40'918.1
2018-Apr-15 14:01N 45°33' E 013°30'918.3
2018-Apr-15 13:31N 45°28' E 013°20'918.6
2018-Apr-15 13:00N 45°19' E 013°14'1019.3
2018-Apr-15 12:30N 45°10' E 013°16'1019.2
2018-Apr-15 12:01N 45°01' E 013°22'1019.3
2018-Apr-15 11:31N 44°53' E 013°28'1019.4
2018-Apr-15 11:01N 44°45' E 013°36'1019.6
2018-Apr-15 10:30N 44°36' E 013°43'1019.9
2018-Apr-15 10:00N 44°28' E 013°51'1020.0
2018-Apr-15 09:29N 44°19' E 013°59'1019.9
2018-Apr-15 08:58N 44°10' E 014°07'920.0
2018-Apr-15 08:31N 44°03' E 014°15'42317.3
2018-Apr-14 08:00N 38°27' E 019°55'2119.6
2018-Apr-14 06:58N 38°10' E 020°09'18315.1
2018-Apr-13 18:50N 37°08' E 023°48'18520.1
2018-Apr-13 09:40N 39°47' E 025°49'519.5
2018-Apr-13 09:23N 39°52' E 025°51'17 0.5
2018-Apr-12 00:02N 40°01' E 026°10'116.1
2018-Apr-11 23:59N 40°01' E 026°09'915.2
2018-Apr-11 23:24N 39°57' E 025°58'616.1
2018-Apr-11 23:00N 39°52' E 025°53'2819.0
2018-Apr-11 21:33N 39°28' E 025°37'3320.4
2018-Apr-11 19:57N 38°58' E 025°18'1021.1
2018-Apr-11 19:29N 38°49' E 025°13'1521.1
2018-Apr-11 18:47N 38°36' E 025°04'621.0
2018-Apr-11 18:30N 38°31' E 025°00'1020.9
2018-Apr-11 18:00N 38°22' E 024°54'7020.6
2018-Apr-11 14:36N 37°21' E 024°11'520.8
2018-Apr-11 14:23N 37°17' E 024°08'820.9
2018-Apr-11 14:00N 37°11' E 024°01'1020.8
2018-Apr-11 13:31N 37°03' E 023°54'1020.8
2018-Apr-11 13:00N 36°54' E 023°46'1020.7
2018-Apr-11 12:30N 36°46' E 023°39'1120.5
2018-Apr-11 11:59N 36°38' E 023°29'  
Track history (hours):
 
Tides and Currents Weather Stations Pressure Air Temp Water Temp Dewpoint Dewpoint Depression Visibility Wind Speed Wind Dir Waves Ship Positions

Un Karadeniz

Last reported at 2018-Apr-20 11:50 UTC. Time now 2018-Apr-20 12:46 UTC.
Position N 40°51' E 029°16'.

Length 193 m; draft 6.3 m.

Type: Ship (hazmat cat A). MMSI: 271002571.

Date/timePositionNaut miles runAvg speedWind from/ knotsBaromVisibWave heightAir tempDewpointWater temp
2018-Apr-20 11:50N 40°51' E 029°16'0 0.0
2018-Apr-20 11:26N 40°51' E 029°16'  
2018-Apr-17 19:16N 37°14' E 024°05'3219.8
2018-Apr-17 17:39N 36°48' E 023°40'420.2
2018-Apr-17 17:29N 36°46' E 023°38'61918.1
2018-Apr-16 07:17N 44°05' E 014°05'620.0
2018-Apr-16 07:00N 44°10' E 014°00'1019.9
2018-Apr-16 06:30N 44°18' E 013°52'1019.7
2018-Apr-16 06:00N 44°26' E 013°45'1019.6
2018-Apr-16 05:30N 44°35' E 013°38'1019.5
2018-Apr-16 05:00N 44°43' E 013°30'1019.7
2018-Apr-16 04:30N 44°51' E 013°23'1019.6
2018-Apr-16 04:00N 44°59' E 013°15'1019.7
2018-Apr-16 03:30N 45°08' E 013°08'1019.5
2018-Apr-16 03:00N 45°17' E 013°04'917.6
2018-Apr-16 02:30N 45°25' E 013°07'1019.3
2018-Apr-16 02:00N 45°32' E 013°18'1019.1
2018-Apr-16 01:30N 45°36' E 013°30'918.6
2018-Apr-16 01:00N 45°39' E 013°42'2 2.8
2018-Apr-16 00:22N 45°39' E 013°45'0 0.0
2018-Apr-15 23:55N 45°39' E 013°45'0 0.0
2018-Apr-15 23:30N 45°39' E 013°45'0 0.0
2018-Apr-15 22:54N 45°39' E 013°45'0 0.0
2018-Apr-15 22:27N 45°39' E 013°45'0 0.0
2018-Apr-15 22:00N 45°39' E 013°45'0 0.0
2018-Apr-15 21:27N 45°39' E 013°45'0 0.0
2018-Apr-15 20:56N 45°39' E 013°45'0 0.0
2018-Apr-15 20:29N 45°39' E 013°45'0 0.0
2018-Apr-15 19:59N 45°39' E 013°45'0 0.0
2018-Apr-15 19:26N 45°39' E 013°45'0 0.0
2018-Apr-15 18:58N 45°39' E 013°45'0 0.0
2018-Apr-15 18:30N 45°39' E 013°45'0 0.0
2018-Apr-15 17:55N 45°39' E 013°45'0 0.0
2018-Apr-15 17:28N 45°39' E 013°45'0 0.0
2018-Apr-15 16:58N 45°39' E 013°45'0 0.0
2018-Apr-15 16:30N 45°39' E 013°45'0 0.0
2018-Apr-15 15:54N 45°39' E 013°45'0 0.0
2018-Apr-15 15:27N 45°39' E 013°45'0 0.0
2018-Apr-15 15:01N 45°39' E 013°45'3 6.8
2018-Apr-15 14:31N 45°39' E 013°40'918.1
2018-Apr-15 14:01N 45°33' E 013°30'918.3
2018-Apr-15 13:31N 45°28' E 013°20'918.6
2018-Apr-15 13:00N 45°19' E 013°14'1019.3
2018-Apr-15 12:30N 45°10' E 013°16'1019.2
2018-Apr-15 12:01N 45°01' E 013°22'1019.3
2018-Apr-15 11:31N 44°53' E 013°28'1019.4
2018-Apr-15 11:01N 44°45' E 013°36'1019.6
2018-Apr-15 10:30N 44°36' E 013°43'1019.9
2018-Apr-15 10:00N 44°28' E 013°51'1020.0
2018-Apr-15 09:29N 44°19' E 013°59'1019.9
2018-Apr-15 08:58N 44°10' E 014°07'920.0
2018-Apr-15 08:31N 44°03' E 014°15'42317.3
2018-Apr-14 08:00N 38°27' E 019°55'2119.6
2018-Apr-14 06:58N 38°10' E 020°09'18315.1
2018-Apr-13 18:50N 37°08' E 023°48'18520.1
2018-Apr-13 09:40N 39°47' E 025°49'519.5
2018-Apr-13 09:23N 39°52' E 025°51'17 0.5
2018-Apr-12 00:02N 40°01' E 026°10'116.1
2018-Apr-11 23:59N 40°01' E 026°09'915.2
2018-Apr-11 23:24N 39°57' E 025°58'616.1
2018-Apr-11 23:00N 39°52' E 025°53'2819.0
2018-Apr-11 21:33N 39°28' E 025°37'3320.4
2018-Apr-11 19:57N 38°58' E 025°18'1021.1
2018-Apr-11 19:29N 38°49' E 025°13'1521.1
2018-Apr-11 18:47N 38°36' E 025°04'621.0
2018-Apr-11 18:30N 38°31' E 025°00'1020.9
2018-Apr-11 18:00N 38°22' E 024°54'7020.6
2018-Apr-11 14:36N 37°21' E 024°11'520.8
2018-Apr-11 14:23N 37°17' E 024°08'820.9
2018-Apr-11 14:00N 37°11' E 024°01'1020.8
2018-Apr-11 13:31N 37°03' E 023°54'1020.8
2018-Apr-11 13:00N 36°54' E 023°46'1020.7
2018-Apr-11 12:30N 36°46' E 023°39'1120.5
2018-Apr-11 11:59N 36°38' E 023°29'  

Dump ship's entire track history